Time;durP1;ratioP1;P1;durP2;ratioP2;P2;SDS_P1;SDS_P2;PMS_P1;PMS_P2;Temp;Humidity;BMP_temperature;BMP_pressure;BME280_temperature;BME280_humidity;BME280_pressure;Samples;Min_cycle;Max_cycle;Signal;HPM_P1;HPM_P2
2022/04/23 00:00:00;;;;;;;4.03;1.05;;;;;;;9.47;62.28;101794.88;4884032;29;20455;-78
2022/04/23 00:02:25;;;;;;;2.47;1.00;;;;;;;9.43;61.54;101777.44;4898059;29;20482;-78
2022/04/23 00:04:50;;;;;;;2.75;1.10;;;;;;;9.45;61.18;101778.13;4901341;29;20045;-78
2022/04/23 00:07:16;;;;;;;2.95;1.00;;;;;;;9.47;60.84;101773.38;4901983;29;20036;-78
2022/04/23 00:09:41;;;;;;;2.47;1.10;;;;;;;9.33;60.87;101756.94;4897881;29;20115;-78
2022/04/23 00:12:07;;;;;;;3.55;1.60;;;;;;;9.51;60.71;101785.50;4900673;29;20159;-78
2022/04/23 00:14:33;;;;;;;1.63;1.05;;;;;;;9.52;60.83;101779.94;4897850;29;20056;-78
2022/04/23 00:17:00;;;;;;;2.17;1.00;;;;;;;9.50;60.80;101791.88;4901489;29;20033;-78
2022/04/23 00:19:25;;;;;;;4.50;1.10;;;;;;;9.25;60.37;101761.47;4903048;29;20116;-78
2022/04/23 00:21:51;;;;;;;2.15;1.00;;;;;;;9.32;60.79;101779.44;4900148;29;20115;-78
2022/04/23 00:24:17;;;;;;;2.08;0.98;;;;;;;9.32;60.90;101778.59;4899884;29;20115;-78
2022/04/23 00:26:42;;;;;;;3.15;0.90;;;;;;;9.34;61.20;101795.41;4898350;29;20047;-78
2022/04/23 00:29:08;;;;;;;3.35;1.13;;;;;;;9.26;61.92;101790.00;4900147;29;20478;-78
2022/04/23 00:31:34;;;;;;;1.92;1.10;;;;;;;9.13;61.56;101782.44;4899051;29;20028;-78
2022/04/23 00:34:00;;;;;;;1.75;0.80;;;;;;;9.07;61.81;101788.47;4898930;29;20073;-78
2022/04/23 00:36:28;;;;;;;1.40;0.98;;;;;;;9.03;62.59;101779.91;4900643;29;20033;-78
2022/04/23 00:38:53;;;;;;;1.20;0.93;;;;;;;8.90;62.63;101761.59;4882726;29;20084;-78
2022/04/23 00:44:04;;;;;;;;;;;;;;;8.92;65.32;101783.75;4900569;29;20047;-78
2022/04/23 00:46:30;;;;;;;3.28;0.90;;;;;;;8.86;63.08;101779.03;4901368;29;20398;-78
2022/04/23 00:48:58;;;;;;;1.73;1.02;;;;;;;9.00;63.10;101787.44;4906178;29;20462;-78
2022/04/23 00:51:25;;;;;;;5.40;1.33;;;;;;;8.95;63.70;101790.63;4918695;29;20060;-78
2022/04/23 00:53:51;;;;;;;2.97;1.23;;;;;;;8.87;63.78;101786.09;4912254;29;20039;-78
2022/04/23 00:56:17;;;;;;;3.15;1.27;;;;;;;8.86;63.88;101792.44;4901218;29;20028;-78
2022/04/23 00:58:43;;;;;;;2.20;1.20;;;;;;;8.77;64.71;101789.91;4899164;29;20047;-78
2022/04/23 01:01:09;;;;;;;2.97;1.30;;;;;;;8.68;64.90;101783.69;4900982;29;20383;-78
2022/04/23 01:03:34;;;;;;;1.42;0.90;;;;;;;8.64;64.61;101791.22;4899346;29;20474;-78
2022/04/23 01:05:59;;;;;;;1.10;0.98;;;;;;;8.56;65.65;101793.03;4899563;29;20109;-78
2022/04/23 01:08:28;;;;;;;2.67;1.15;;;;;;;8.46;66.21;101793.97;4897652;29;20054;-78
2022/04/23 01:10:53;;;;;;;2.67;1.20;;;;;;;8.34;67.34;101799.75;4900195;29;20047;-78
2022/04/23 01:13:19;;;;;;;2.38;1.20;;;;;;;8.15;68.97;101796.31;4899775;29;20059;-77
2022/04/23 01:16:02;;;;;;;1.77;1.13;;;;;;;8.06;72.11;101802.63;4903355;29;20407;-78
2022/04/23 01:18:29;;;;;;;1.75;1.10;;;;;;;8.11;70.42;101799.47;4920818;29;20012;-79
2022/04/23 01:20:56;;;;;;;2.00;1.40;;;;;;;7.96;71.43;101800.06;4904368;29;20024;-78
2022/04/23 01:23:22;;;;;;;3.53;1.50;;;;;;;7.89;71.67;101801.69;4901206;29;20032;-78
2022/04/23 01:25:49;;;;;;;4.57;1.35;;;;;;;7.88;71.33;101799.16;4902271;29;20115;-78
2022/04/23 01:28:16;;;;;;;1.83;1.60;;;;;;;7.80;73.00;101801.78;4900914;29;20028;-78
2022/04/23 01:30:42;;;;;;;2.55;1.52;;;;;;;7.77;74.04;101808.28;4898379;29;20033;-78
2022/04/23 01:33:07;;;;;;;4.25;1.20;;;;;;;7.75;74.86;101810.31;4897639;29;20099;-78
2022/04/23 01:35:34;;;;;;;7.30;1.50;;;;;;;7.54;76.83;101791.88;4897974;29;20444;-78
2022/04/23 01:37:59;;;;;;;2.60;1.38;;;;;;;7.64;77.79;101815.88;4897632;29;20238;-78
2022/04/23 01:40:24;;;;;;;8.00;1.27;;;;;;;7.67;79.23;101819.09;4898406;29;20450;-78
2022/04/23 01:42:49;;;;;;;4.30;1.40;;;;;;;7.62;81.49;101825.94;4898237;29;20067;-78
2022/04/23 01:45:15;;;;;;;2.45;1.20;;;;;;;7.65;81.64;101829.13;4895899;29;20056;-78
2022/04/23 01:47:40;;;;;;;2.95;1.30;;;;;;;7.67;82.33;101826.28;4899000;29;20065;-78
2022/04/23 01:50:07;;;;;;;1.67;1.20;;;;;;;7.71;82.56;101824.97;4896707;29;20067;-78
2022/04/23 01:52:33;;;;;;;3.08;1.35;;;;;;;7.59;84.10;101804.81;4899070;29;20546;-77
2022/04/23 01:54:59;;;;;;;1.98;1.20;;;;;;;7.32;83.79;101760.19;4897955;29;20172;-78
2022/04/23 01:57:25;;;;;;;2.35;1.20;;;;;;;7.62;nan;101818.72;4898301;29;20067;-78
2022/04/23 01:59:50;;;;;;;3.33;1.20;;;;;;;7.61;85.45;101808.16;4899961;29;20081;-78
2022/04/23 02:02:15;;;;;;;3.75;1.38;;;;;;;7.58;85.36;101803.94;4896664;29;20024;-78
2022/04/23 02:04:41;;;;;;;3.78;1.63;;;;;;;7.70;84.83;101807.22;4898974;29;20534;-78
2022/04/23 02:07:06;;;;;;;4.40;1.27;;;;;;;7.50;87.32;101798.53;4896719;29;20135;-78
2022/04/23 02:09:33;;;;;;;2.47;1.40;;;;;;;7.52;87.81;101813.47;4899219;29;20028;-78
2022/04/23 02:11:58;;;;;;;4.03;1.20;;;;;;;7.46;88.87;101799.84;4899119;29;20045;-77
2022/04/23 02:14:23;;;;;;;3.28;1.08;;;;;;;7.42;88.68;101788.59;4899977;29;20116;-78
2022/04/23 02:16:49;;;;;;;3.42;1.20;;;;;;;7.40;88.80;101790.59;4898311;29;20146;-78
2022/04/23 02:19:14;;;;;;;2.20;1.35;;;;;;;7.48;88.60;101812.09;4904392;29;20414;-78
2022/04/23 02:21:40;;;;;;;2.75;1.30;;;;;;;7.32;89.85;101806.59;4905569;29;20119;-78
2022/04/23 02:24:06;;;;;;;2.70;1.00;;;;;;;7.36;91.05;101820.50;4902244;29;20103;-78
2022/04/23 02:26:31;;;;;;;3.03;1.52;;;;;;;7.38;90.48;101824.69;4899991;29;20036;-78
2022/04/23 02:28:56;;;;;;;3.22;1.27;;;;;;;7.33;91.65;101827.00;4882659;29;20115;-78
2022/04/23 02:31:21;;;;;;;2.00;1.10;;;;;;;7.32;91.83;101819.09;4911618;29;20033;-78
2022/04/23 02:33:47;;;;;;;2.75;1.20;;;;;;;7.30;91.88;101824.63;4885551;29;20033;-78
2022/04/23 02:36:12;;;;;;;1.98;1.48;;;;;;;7.21;91.80;101812.16;4880272;29;20067;-78
2022/04/23 02:38:41;;;;;;;3.70;1.30;;;;;;;7.30;90.79;101824.63;4897559;29;20107;-78
2022/04/23 02:41:10;;;;;;;2.10;1.10;;;;;;;7.24;91.35;101823.41;4896816;29;20024;-78
2022/04/23 02:43:38;;;;;;;1.50;1.20;;;;;;;7.21;91.68;101825.53;4897001;29;20127;-78
2022/04/23 02:46:04;;;;;;;3.17;1.20;;;;;;;7.17;90.67;101810.78;4898092;29;20463;-78
2022/04/23 02:48:31;;;;;;;2.17;1.00;;;;;;;7.20;90.64;101816.66;4899098;29;20363;-78
2022/04/23 02:50:57;;;;;;;4.03;1.33;;;;;;;7.15;90.62;101813.63;4897235;29;20032;-78
2022/04/23 02:53:23;;;;;;;3.80;1.50;;;;;;;7.20;89.93;101821.19;4897468;29;20112;-78
2022/04/23 02:55:48;;;;;;;3.08;1.20;;;;;;;7.00;91.79;101805.25;4895700;29;20024;-77
2022/04/23 02:58:14;;;;;;;4.13;1.20;;;;;;;7.05;92.57;101816.38;4887077;29;20029;-78
2022/04/23 03:00:42;;;;;;;4.05;1.15;;;;;;;6.99;93.52;101814.28;4911212;29;20060;-78
2022/04/23 03:03:08;;;;;;;2.42;1.27;;;;;;;6.93;94.05;101806.84;4897658;29;20056;-78
2022/04/23 03:05:34;;;;;;;1.83;1.30;;;;;;;6.86;96.66;101816.47;4898370;29;20033;-77
2022/04/23 03:08:00;;;;;;;1.83;1.30;;;;;;;6.88;97.68;101819.00;4896745;29;20039;-78
2022/04/23 03:10:26;;;;;;;1.63;1.23;;;;;;;6.76;99.83;101826.41;4897410;29;20115;-78
2022/04/23 03:12:52;;;;;;;2.33;1.27;;;;;;;6.71;98.95;101805.44;4896601;29;20044;-78
2022/04/23 03:15:17;;;;;;;2.78;1.10;;;;;;;6.68;99.19;101811.06;4898578;29;20096;-78
2022/04/23 03:17:44;;;;;;;1.50;1.15;;;;;;;6.79;98.96;101837.63;4897573;29;20123;-77
2022/04/23 03:20:12;;;;;;;3.28;1.25;;;;;;;6.72;99.41;101828.53;4902699;29;20039;-78
2022/04/23 03:22:42;;;;;;;5.32;1.63;;;;;;;6.71;98.86;101826.81;4900530;29;20359;-78
2022/04/23 03:25:09;;;;;;;1.95;0.90;;;;;;;6.65;96.94;101816.72;4900838;29;20459;-78
2022/04/23 03:27:34;;;;;;;3.15;1.08;;;;;;;6.65;96.39;101813.22;4902453;29;20037;-79
2022/04/23 03:30:00;;;;;;;2.33;1.00;;;;;;;6.55;96.23;101802.56;4899258;29;20490;-78
2022/04/23 03:32:26;;;;;;;3.88;1.10;;;;;;;6.65;95.08;101813.22;4902629;29;20104;-78
2022/04/23 03:34:53;;;;;;;1.77;0.80;;;;;;;6.55;93.08;101803.38;4900810;29;20048;-78
2022/04/23 03:37:18;;;;;;;2.22;0.80;;;;;;;6.47;91.47;101794.44;4902856;29;20040;-78
2022/04/23 03:39:44;;;;;;;1.90;0.80;;;;;;;6.37;89.38;101777.63;4903172;29;20088;-78
2022/04/23 03:42:10;;;;;;;3.78;1.02;;;;;;;6.45;89.42;101794.56;4905642;29;20380;-78
2022/04/23 03:44:35;;;;;;;3.17;0.82;;;;;;;6.44;88.64;101792.06;4902632;29;20048;-78
2022/04/23 03:47:01;;;;;;;1.85;0.70;;;;;;;6.59;87.53;101815.50;4902020;29;20056;-78
2022/04/23 03:49:28;;;;;;;2.17;0.90;;;;;;;6.46;86.65;101801.63;4903181;29;20033;-78
2022/04/23 03:51:54;;;;;;;1.60;0.80;;;;;;;6.56;86.15;101804.25;4908897;29;20033;-78
2022/04/23 03:54:20;;;;;;;3.25;0.75;;;;;;;6.44;85.29;101798.25;4886255;29;20029;-78
2022/04/23 03:56:45;;;;;;;1.88;0.70;;;;;;;6.52;84.73;101810.88;4896763;29;20074;-77
2022/04/23 03:59:12;;;;;;;1.77;0.70;;;;;;;6.45;84.22;101813.28;4900530;29;20359;-78
2022/04/23 04:01:37;;;;;;;1.67;0.60;;;;;;;6.49;83.53;101822.72;4899723;29;20132;-78
2022/04/23 04:04:03;;;;;;;1.75;0.50;;;;;;;6.53;82.54;101810.75;4900393;29;20123;-78
2022/04/23 04:06:28;;;;;;;1.30;0.70;;;;;;;6.65;80.93;101810.53;4883264;29;20079;-78
2022/04/23 04:08:55;;;;;;;1.92;0.52;;;;;;;6.77;79.80;101823.56;4901328;29;20402;-78
2022/04/23 04:11:21;;;;;;;1.27;0.50;;;;;;;6.92;78.44;101818.56;4899234;29;20048;-77
2022/04/23 04:13:47;;;;;;;1.33;0.50;;;;;;;7.18;76.07;101799.06;4900960;29;20051;-78
2022/04/23 04:16:13;;;;;;;1.30;0.32;;;;;;;7.25;75.63;101829.59;4884491;29;20032;-78
2022/04/23 04:18:39;;;;;;;0.90;0.40;;;;;;;6.99;76.41;101824.16;4899232;29;20039;-78
2022/04/23 04:21:05;;;;;;;1.00;0.43;;;;;;;6.79;77.03;101828.78;4901110;29;20119;-78
2022/04/23 04:23:30;;;;;;;3.72;0.52;;;;;;;6.62;77.11;101819.69;4898118;29;20036;-78
2022/04/23 04:25:56;;;;;;;0.47;0.38;;;;;;;6.78;76.65;101822.56;4901117;29;20032;-78
2022/04/23 04:28:21;;;;;;;1.00;0.50;;;;;;;6.65;77.06;101821.22;4899147;29;20069;-78
2022/04/23 04:33:31;;;;;;;0.77;0.50;;;;;;;7.06;74.48;101841.28;4899117;29;20368;-78
2022/04/23 04:35:57;;;;;;;1.33;0.35;;;;;;;7.69;72.00;101838.53;4883251;29;20036;-78
2022/04/23 04:38:22;;;;;;;1.23;0.50;;;;;;;8.15;69.65;101841.91;4900006;29;20029;-79
2022/04/23 04:40:48;;;;;;;1.77;0.40;;;;;;;8.20;68.43;101830.69;4900328;29;20028;-78
2022/04/23 04:43:13;;;;;;;0.52;0.30;;;;;;;8.31;67.54;101817.03;4898800;29;20173;-78
2022/04/23 04:45:38;;;;;;;1.75;0.45;;;;;;;8.80;66.32;101825.31;4900989;29;20043;-78
2022/04/23 04:48:05;;;;;;;2.35;0.40;;;;;;;9.05;63.97;101820.03;4886727;29;20055;-78
2022/04/23 04:50:31;;;;;;;0.70;0.40;;;;;;;8.99;64.54;101837.63;4898067;29;20029;-78
2022/04/23 04:52:57;;;;;;;1.50;0.47;;;;;;;9.09;63.06;101824.06;4900331;29;20025;-78
2022/04/23 04:55:23;;;;;;;0.82;0.40;;;;;;;9.28;61.88;101815.69;4901756;29;20069;-78
2022/04/23 04:57:49;;;;;;;1.13;0.40;;;;;;;9.09;62.34;101776.56;4899443;29;20036;-78
2022/04/23 05:00:16;;;;;;;1.33;0.40;;;;;;;9.25;62.35;101834.00;4896930;29;20029;-78
2022/04/23 05:02:41;;;;;;;1.08;0.30;;;;;;;9.45;62.09;101827.31;4896020;29;20033;-78
2022/04/23 05:05:07;;;;;;;2.65;0.63;;;;;;;9.17;62.31;101797.19;4879931;29;20043;-78
2022/04/23 05:07:33;;;;;;;0.77;0.40;;;;;;;9.36;61.75;101817.53;4896828;29;20123;-78
2022/04/23 05:10:00;;;;;;;1.55;0.50;;;;;;;9.53;61.22;101821.09;4883971;29;20055;-77
2022/04/23 05:12:27;;;;;;;1.13;0.40;;;;;;;9.95;60.14;101803.94;4898637;29;20048;-78
2022/04/23 05:14:52;;;;;;;0.45;0.20;;;;;;;9.87;59.85;101811.00;4900600;29;20483;-78
2022/04/23 05:17:18;;;;;;;0.90;0.47;;;;;;;8.93;62.78;101800.69;4896827;29;20064;-79
2022/04/23 05:19:44;;;;;;;1.20;0.30;;;;;;;7.84;67.38;101793.25;4896997;29;20040;-78
2022/04/23 05:22:09;;;;;;;0.95;0.40;;;;;;;7.82;68.93;101808.66;4899697;29;20029;-78
2022/04/23 05:24:34;;;;;;;0.50;0.20;;;;;;;7.76;69.58;101812.81;4896621;29;20378;-78
2022/04/23 05:27:01;;;;;;;1.75;0.30;;;;;;;7.63;69.12;101814.22;4898791;29;20039;-77
2022/04/23 05:29:27;;;;;;;0.70;0.30;;;;;;;7.70;68.78;101802.72;4899298;29;20120;-78
2022/04/23 05:31:52;;;;;;;2.60;0.50;;;;;;;7.82;69.21;101822.06;4899104;29;20124;-78
2022/04/23 05:34:18;;;;;;;0.88;0.32;;;;;;;7.54;69.64;101791.88;4881667;29;20121;-81
2022/04/23 05:36:43;;;;;;;1.20;0.40;;;;;;;7.74;69.50;101812.09;4900629;29;20028;-80
2022/04/23 05:39:08;;;;;;;0.63;0.30;;;;;;;7.68;69.03;101812.75;4900203;29;20040;-79
2022/04/23 05:41:34;;;;;;;1.45;0.30;;;;;;;7.67;69.79;101786.94;4899751;29;20044;-79
2022/04/23 05:43:59;;;;;;;1.17;0.50;;;;;;;7.73;69.48;101801.56;4899315;29;20056;-79
2022/04/23 05:46:24;;;;;;;0.52;0.30;;;;;;;7.86;68.89;101806.50;4884218;29;20028;-79
2022/04/23 05:48:50;;;;;;;0.50;0.20;;;;;;;7.87;69.19;101813.53;4901910;29;20056;-80
2022/04/23 05:51:15;;;;;;;0.50;0.30;;;;;;;7.72;69.23;101778.47;4899723;29;20040;-79
2022/04/23 05:53:41;;;;;;;0.80;0.20;;;;;;;7.96;68.37;101788.50;4898628;29;20516;-79
2022/04/23 05:56:07;;;;;;;0.70;0.22;;;;;;;7.93;68.23;101811.09;4899059;29;20128;-80
2022/04/23 05:58:36;;;;;;;1.20;0.30;;;;;;;7.96;68.15;101799.22;4904297;29;20457;-78
2022/04/23 06:01:03;;;;;;;0.32;0.20;;;;;;;8.01;68.59;101799.56;4897180;29;20033;-79
2022/04/23 06:03:28;;;;;;;0.73;0.30;;;;;;;8.32;67.80;101801.78;4898765;29;20033;-78
2022/04/23 06:05:54;;;;;;;0.65;0.22;;;;;;;8.16;67.27;101803.34;4896401;29;20056;-78
2022/04/23 06:08:20;;;;;;;2.30;0.20;;;;;;;8.31;67.29;101800.94;4883087;29;20367;-78
2022/04/23 06:10:45;;;;;;;1.17;0.30;;;;;;;8.39;66.89;101818.94;4903188;29;20029;-78
2022/04/23 06:13:11;;;;;;;1.98;0.45;;;;;;;8.25;67.23;101828.38;4880812;29;20126;-78
2022/04/23 06:15:36;;;;;;;0.30;0.20;;;;;;;8.40;67.50;101802.66;4881479;29;20037;-78
2022/04/23 06:18:01;;;;;;;0.47;0.20;;;;;;;8.68;66.87;101797.09;4880349;29;20032;-79
2022/04/23 06:20:28;;;;;;;1.85;0.22;;;;;;;8.69;66.41;101794.25;4879923;29;20388;-79
2022/04/23 06:22:53;;;;;;;1.45;0.15;;;;;;;8.83;66.12;101789.25;4879238;29;20037;-78
2022/04/23 06:25:19;;;;;;;0.55;0.20;;;;;;;8.90;65.85;101796.47;4879417;29;20421;-78
2022/04/23 06:27:44;;;;;;;1.02;0.30;;;;;;;9.10;65.18;101794.34;4864866;29;20040;-78
2022/04/23 06:30:10;;;;;;;0.50;0.30;;;;;;;9.21;65.05;101787.84;4880729;29;20044;-77
2022/04/23 06:32:39;;;;;;;1.25;0.40;;;;;;;9.05;64.64;101787.81;4888406;29;20057;-78
2022/04/23 06:35:06;;;;;;;0.63;0.35;;;;;;;9.04;64.22;101791.47;4882516;29;20033;-79
2022/04/23 06:37:37;;;;;;;1.33;0.30;;;;;;;9.24;65.07;101781.28;4889127;29;20029;-78
2022/04/23 06:40:03;;;;;;;0.60;0.20;;;;;;;9.14;65.06;101739.31;4900423;29;20021;-77
2022/04/23 06:42:29;;;;;;;1.02;0.40;;;;;;;9.66;64.47;101762.31;4886441;29;20033;-79
2022/04/23 06:44:54;;;;;;;0.82;0.30;;;;;;;9.82;63.76;101761.44;4882269;29;20112;-79
2022/04/23 06:47:20;;;;;;;0.85;0.30;;;;;;;9.48;63.60;101751.75;4873990;29;20033;-79
2022/04/23 06:49:45;;;;;;;2.33;0.35;;;;;;;9.90;63.31;101777.56;4869641;29;20041;-78
2022/04/23 06:52:10;;;;;;;1.20;0.30;;;;;;;9.79;63.18;101773.38;4878836;29;20077;-78
2022/04/23 06:54:36;;;;;;;1.02;0.40;;;;;;;9.80;63.16;101758.94;4877569;29;20069;-78
2022/04/23 06:57:01;;;;;;;1.25;0.40;;;;;;;9.72;62.55;101748.19;4878005;29;20041;-77
2022/04/23 06:59:26;;;;;;;0.55;0.50;;;;;;;10.04;62.46;101768.78;4878589;29;20097;-78
2022/04/23 07:01:52;;;;;;;2.70;0.40;;;;;;;10.28;61.79;101764.38;4861680;29;20120;-78
2022/04/23 07:04:17;;;;;;;2.45;0.60;;;;;;;10.08;62.38;101778.19;4880107;29;20043;-78
2022/04/23 07:06:42;;;;;;;0.65;0.38;;;;;;;9.89;62.24;101731.00;4876937;29;20033;-78
2022/04/23 07:09:08;;;;;;;2.65;0.47;;;;;;;10.05;62.24;101756.19;4880191;29;20064;-78
2022/04/23 07:11:34;;;;;;;0.68;0.40;;;;;;;10.16;61.21;101712.78;4880807;29;20052;-78
2022/04/23 07:13:59;;;;;;;3.70;0.30;;;;;;;10.17;61.71;101749.44;4898417;29;20040;-78
2022/04/23 07:16:24;;;;;;;0.85;0.40;;;;;;;9.99;61.85;101741.56;4895139;29;20044;-78
2022/04/23 07:18:53;;;;;;;0.65;0.30;;;;;;;10.23;61.96;101751.44;4894375;29;20049;-79
2022/04/23 07:21:21;;;;;;;0.95;0.30;;;;;;;10.34;60.96;101744.88;4864869;29;20024;-78
2022/04/23 07:26:31;;;;;;;0.82;0.30;;;;;;;10.54;60.81;101740.72;4898012;29;20378;-78
2022/04/23 07:28:57;;;;;;;0.38;0.30;;;;;;;10.42;60.54;101717.06;4900854;29;20323;-78
2022/04/23 07:31:23;;;;;;;1.98;0.40;;;;;;;10.58;60.88;101736.66;4917958;29;20094;-79
2022/04/23 07:39:17;;;;;;;1.35;0.47;;;;;;;10.20;59.93;101657.63;4879458;29;20043;-78
2022/04/23 07:41:43;;;;;;;3.17;0.70;;;;;;;10.92;60.11;101735.44;4895938;29;20112;-78
2022/04/23 07:44:09;;;;;;;1.05;0.40;;;;;;;11.22;59.81;101741.78;4881865;29;20379;-78
2022/04/23 07:46:34;;;;;;;1.50;0.40;;;;;;;11.22;59.43;101717.53;4896962;29;20025;-79
2022/04/23 07:48:59;;;;;;;1.42;0.40;;;;;;;11.28;59.31;101724.06;4880396;29;20037;-78
2022/04/23 07:51:28;;;;;;;2.15;0.45;;;;;;;11.32;59.23;101732.63;4897021;29;20032;-78
2022/04/23 07:53:56;;;;;;;1.85;0.50;;;;;;;11.10;59.42;101745.94;4882133;29;20092;-78
2022/04/23 07:56:22;;;;;;;1.27;0.40;;;;;;;11.19;58.78;101714.38;4898360;29;20044;-78
2022/04/23 07:58:48;;;;;;;1.17;0.30;;;;;;;11.43;58.14;101722.28;4896982;29;20020;-78
2022/04/23 08:01:13;;;;;;;1.80;0.68;;;;;;;11.39;58.67;101720.09;4896078;29;20115;-78
2022/04/23 08:03:38;;;;;;;2.10;0.40;;;;;;;11.58;58.25;101722.28;4897023;29;20440;-78
2022/04/23 08:06:04;;;;;;;0.98;0.47;;;;;;;11.33;57.79;101696.59;4898483;29;20072;-79
2022/04/23 08:08:29;;;;;;;1.13;0.40;;;;;;;11.64;57.44;101721.56;4900173;29;20032;-78
2022/04/23 08:10:55;;;;;;;1.55;0.40;;;;;;;11.78;58.00;101709.09;4900427;29;20047;-78
2022/04/23 08:13:20;;;;;;;0.75;0.30;;;;;;;11.74;57.26;101713.19;4884056;29;20053;-78
2022/04/23 08:15:46;;;;;;;0.98;0.30;;;;;;;11.77;56.83;101716.38;4900711;29;20040;-78
2022/04/23 08:18:13;;;;;;;0.80;0.30;;;;;;;11.52;56.65;101715.78;4901489;29;20029;-78
2022/04/23 08:20:41;;;;;;;1.50;0.40;;;;;;;11.67;57.15;101717.66;4903914;29;20458;-78
2022/04/23 08:23:07;;;;;;;0.43;0.28;;;;;;;11.39;58.27;101690.47;4885491;29;20053;-78
2022/04/23 08:25:33;;;;;;;0.75;0.40;;;;;;;11.65;57.90;101722.38;4899844;29;20092;-78
2022/04/23 08:30:42;;;;;;;2.10;0.30;;;;;;;11.65;56.60;101693.56;4899966;29;20542;-78
2022/04/23 08:33:08;;;;;;;2.47;0.30;;;;;;;11.85;56.48;101682.28;4900685;29;20036;-79
2022/04/23 08:35:34;;;;;;;0.70;0.40;;;;;;;11.84;56.52;101694.06;4900711;29;20036;-78
2022/04/23 08:38:02;;;;;;;0.50;0.40;;;;;;;11.73;55.38;101669.22;4900857;29;20040;-78
2022/04/23 08:40:29;;;;;;;2.22;0.60;;;;;;;11.95;55.42;101686.38;4900240;29;20408;-78
2022/04/23 08:42:55;;;;;;;0.90;0.40;;;;;;;12.16;54.49;101685.63;4902444;29;20057;-78
2022/04/23 08:45:20;;;;;;;2.80;0.40;;;;;;;11.98;53.58;101667.09;4899320;29;20431;-78
2022/04/23 08:47:46;;;;;;;1.65;0.30;;;;;;;12.14;54.18;101676.84;4901580;29;20032;-78
2022/04/23 08:50:13;;;;;;;2.25;0.40;;;;;;;12.28;53.66;101660.84;4899523;29;20506;-78
2022/04/23 08:52:43;;;;;;;1.05;0.40;;;;;;;12.26;53.52;101663.72;4901282;29;20088;-78
2022/04/23 08:55:09;;;;;;;5.75;0.57;;;;;;;12.71;53.83;101667.13;4898312;29;20327;-78
2022/04/23 08:57:37;;;;;;;0.75;0.40;;;;;;;12.36;53.14;101655.34;4899045;29;20045;-78
2022/04/23 09:00:08;;;;;;;1.13;0.40;;;;;;;12.36;53.14;101664.28;4899600;29;20096;-78
2022/04/23 09:02:35;;;;;;;2.35;0.40;;;;;;;12.38;52.32;101648.72;4884615;29;20024;-78
2022/04/23 09:05:00;;;;;;;1.80;0.30;;;;;;;12.66;52.63;101654.22;4898701;29;20041;-78
2022/04/23 09:07:29;;;;;;;3.13;0.50;;;;;;;12.68;53.23;101657.56;4900435;29;20032;-78
2022/04/23 09:09:55;;;;;;;2.90;0.50;;;;;;;13.00;51.76;101644.56;4913225;29;20530;-78
2022/04/23 09:12:25;;;;;;;1.48;0.50;;;;;;;13.08;51.86;101660.63;4898858;29;20056;-78
2022/04/23 09:14:52;;;;;;;1.08;0.30;;;;;;;12.44;51.10;101677.63;4898851;29;20036;-78
2022/04/23 09:25:42;;;;;;;1.13;0.30;;;;;;;12.43;52.47;101659.78;4900998;29;20095;-78
2022/04/23 09:28:21;;;;;;;1.30;0.40;;;;;;;11.99;52.83;101641.00;4901635;29;20036;-78
2022/04/23 09:30:49;;;;;;;2.30;0.43;;;;;;;12.08;53.06;101620.94;4897370;29;20083;-78
2022/04/23 09:33:14;;;;;;;3.83;0.30;;;;;;;12.59;51.75;101626.31;4899878;29;20040;-78
2022/04/23 09:36:01;;;;;;;0.80;0.30;;;;;;;12.72;49.98;101628.31;4882496;29;20028;-78
2022/04/23 09:38:28;;;;;;;1.67;0.40;;;;;;;12.78;51.15;101638.34;4886815;29;20039;-78
2022/04/23 09:40:57;;;;;;;0.93;0.35;;;;;;;12.84;51.68;101636.72;4899532;29;20033;-78
2022/04/23 09:43:32;;;;;;;2.08;0.40;;;;;;;12.56;50.06;101632.09;4898206;29;20041;-78
2022/04/23 09:46:04;;;;;;;3.60;0.30;;;;;;;12.74;50.05;101622.69;4899293;29;20029;-78
2022/04/23 09:48:30;;;;;;;2.05;0.40;;;;;;;12.94;50.58;101629.13;4898590;29;20043;-78
2022/04/23 09:50:57;;;;;;;1.00;0.40;;;;;;;13.04;50.76;101626.91;4913874;29;20060;-78
2022/04/23 09:53:27;;;;;;;0.85;0.30;;;;;;;13.09;50.02;101627.19;4898459;29;20096;-78
2022/04/23 09:55:53;;;;;;;1.38;0.40;;;;;;;12.99;50.30;101618.56;4904749;29;20047;-78
2022/04/23 09:58:19;;;;;;;3.47;1.15;;;;;;;13.09;49.64;101624.47;4917173;29;20051;-78
2022/04/23 10:00:47;;;;;;;0.68;0.40;;;;;;;13.25;48.99;101614.44;4911257;29;20040;-78
2022/04/23 10:03:13;;;;;;;2.70;0.50;;;;;;;13.20;49.08;101616.84;4897856;29;20566;-78
2022/04/23 10:05:48;;;;;;;1.38;0.60;;;;;;;13.28;49.05;101619.47;4897754;29;20037;-78
2022/04/23 10:08:21;;;;;;;0.40;0.30;;;;;;;13.51;48.43;101613.75;4897990;29;20468;-78
2022/04/23 10:10:53;;;;;;;0.70;0.40;;;;;;;13.11;48.67;101589.13;4899271;29;20528;-78
2022/04/23 10:13:21;;;;;;;2.17;0.40;;;;;;;13.14;50.81;101607.66;4897476;29;20067;-78
2022/04/23 10:15:47;;;;;;;0.75;0.30;;;;;;;13.07;49.46;101613.00;4898140;29;20028;-78
2022/04/23 10:18:15;;;;;;;1.92;0.57;;;;;;;12.96;50.20;101618.13;4897794;29;20024;-77
2022/04/23 10:20:40;;;;;;;4.82;3.03;;;;;;;13.13;50.19;101595.19;4898394;29;20036;-78
2022/04/23 10:23:15;;;;;;;2.97;0.75;;;;;;;13.27;49.02;101572.66;4881178;29;20033;-78
2022/04/23 10:25:58;;;;;;;5.00;2.50;;;;;;;13.35;49.63;101590.59;4899114;29;20425;-78
2022/04/23 10:28:24;;;;;;;0.63;0.40;;;;;;;13.36;49.07;101622.84;4896554;29;20371;-78
2022/04/23 10:31:11;;;;;;;1.67;0.50;;;;;;;13.29;48.06;101591.41;4896366;29;20092;-77
2022/04/23 10:33:43;;;;;;;0.73;0.40;;;;;;;13.21;49.39;101575.28;4902405;29;20032;-78
2022/04/23 10:36:09;;;;;;;0.93;0.35;;;;;;;12.94;49.24;101548.91;4895613;29;20040;-78
2022/04/23 10:38:42;;;;;;;0.38;0.20;;;;;;;13.45;49.45;101580.28;4897510;29;20063;-78
2022/04/23 10:41:10;;;;;;;2.92;0.40;;;;;;;13.53;48.01;101568.44;4898125;29;20035;-78
2022/04/23 10:43:35;;;;;;;2.17;1.20;;;;;;;13.71;47.55;101571.47;4897006;29;20050;-78
2022/04/23 10:46:04;;;;;;;1.50;0.50;;;;;;;13.67;47.28;101574.75;4881955;29;20135;-78
2022/04/23 10:48:30;;;;;;;0.63;0.32;;;;;;;13.74;48.26;101581.03;4896693;29;20079;-78
2022/04/23 10:51:10;;;;;;;5.90;2.20;;;;;;;13.62;47.13;101553.72;4896351;29;20036;-78
2022/04/23 10:53:56;;;;;;;1.05;0.50;;;;;;;13.79;46.94;101568.56;4898059;29;20057;-78
2022/04/23 10:56:23;;;;;;;0.98;0.30;;;;;;;13.40;47.40;101545.69;4896480;29;20459;-78
2022/04/23 10:58:51;;;;;;;1.17;0.40;;;;;;;13.58;47.29;101555.19;4895735;29;20036;-78
2022/04/23 11:01:29;;;;;;;1.23;0.43;;;;;;;13.55;49.12;101561.81;4897202;29;20071;-78
2022/04/23 11:03:54;;;;;;;0.82;0.30;;;;;;;13.71;47.17;101570.59;4896222;29;20039;-78
2022/04/23 11:12:37;;;;;;;0.75;0.32;;;;;;;13.43;48.23;101568.81;4892083;29;20056;-78
2022/04/23 11:15:14;;;;;;;0.35;0.25;;;;;;;13.85;48.10;101553.41;4896851;29;20037;-78
2022/04/23 11:17:39;;;;;;;1.50;0.30;;;;;;;13.87;47.64;101583.78;4902393;29;20056;-78
2022/04/23 11:20:05;;;;;;;3.95;0.50;;;;;;;13.74;46.77;101564.78;4898105;29;20064;-78
2022/04/23 11:22:31;;;;;;;5.95;0.80;;;;;;;13.62;45.77;101524.81;4898674;29;20032;-78
2022/04/23 11:24:57;;;;;;;1.58;0.50;;;;;;;14.16;46.70;101552.03;4903200;29;20024;-78
2022/04/23 11:27:32;;;;;;;1.40;0.45;;;;;;;14.24;45.48;101570.81;4904074;29;20052;-78
2022/04/23 11:29:58;;;;;;;2.88;0.40;;;;;;;13.80;45.28;101564.81;4894094;29;20044;-78
2022/04/23 11:32:28;;;;;;;1.85;0.40;;;;;;;13.58;46.40;101533.53;4882090;29;20468;-78
2022/04/23 11:35:01;;;;;;;1.42;0.32;;;;;;;14.07;45.42;101563.06;4905477;29;20020;-78
2022/04/23 11:37:35;;;;;;;2.08;0.30;;;;;;;13.93;46.02;101566.75;4918641;29;20072;-78
2022/04/23 11:40:06;;;;;;;1.35;0.30;;;;;;;13.76;45.37;101576.25;4909028;29;20024;-77
2022/04/23 11:42:39;;;;;;;3.40;0.50;;;;;;;13.59;45.62;101563.06;4899050;29;20032;-78
2022/04/23 11:45:06;;;;;;;0.80;0.40;;;;;;;13.73;45.66;101544.19;4897101;29;20064;-78
2022/04/23 11:47:31;;;;;;;1.13;0.30;;;;;;;14.01;45.46;101555.75;4899972;29;20479;-77
2022/04/23 11:50:12;;;;;;;1.80;0.32;;;;;;;13.58;45.51;101566.81;4903471;29;20032;-77
2022/04/23 11:52:42;;;;;;;2.15;0.47;;;;;;;14.00;45.51;101548.66;4906159;29;20029;-78
2022/04/23 11:55:20;;;;;;;3.47;0.40;;;;;;;14.02;45.79;101541.19;4901651;29;20447;-78
2022/04/23 11:58:04;;;;;;;0.82;0.30;;;;;;;14.37;45.69;101537.50;4901427;29;20072;-77
2022/04/23 12:00:34;;;;;;;4.43;0.60;;;;;;;14.15;44.71;101534.97;4896907;29;20032;-78